Pagina principale
METAR-TAF:

METAR-TAF

Aeroporti :

Waterbury-Oxford Airport

Oxford, Connecticut, Stati Uniti

latitudine: 41-29N, longitudine: 073-08W, altezza: 222 m

Osservazione

Il bollettino è stato emesso 24 minuti fa, alle 07:51 UTC
Vento 8 kt da nord/nord-ovest
Temperature 17°C
Umidità 63%
Pressione 1018 hPa
Visibilità: 16.1 km
Cielo sereno

METAR: KOXC 240751Z AUTO 34008KT 10SM CLR 17/10 A3005 RMK AO2 SLP183 T01670100 TSNO

Ora: 04:15 (08:15 UTC)


TAF: mancante

Osservazioni e previsioni meteorologiche di più di 4000 aeroporti (messaggi METAR e TAF).

Le stazioni disponibili sono rappresentate dai dischi gialli e rossi sulla carta.

Puntare il mouse per vedere il nome della stazione.

Clicca sopra per visualizzare le osservazioni e previsioni meteorologiche.

Per cambiare la mappa : fare clic sui pulsanti verdi con una croce nera per ingrandire, il pulsante verde con un trattino per diminuire, o sulla freccia verde per le mappe adiacenti.


METAR-TAF: